»·PEaware :: N6056Q KSEE-KVNY

N6056Q :: KSEE-KVNY

FLIGHT INFORMATION

Flight Status: Arrived
Operator: Privately registered:
United States
More flights under this callsign
Pilot: Abraham T. (20517)
Aircraft: BEECH AIRCRAFT BONANZA
(BE36)
More flights by this aircraft type
Origin: KSEE Gillespie
United States
Destination: KVNY Van Nuys
United States
More flights between these airports :: More routes between these airports
Route: OCN V23 POPPR SMO125 SMO SMO317 CANOG
File this flight plan on PilotEdge
Remarks: assign a hold off of a vor please
Altitude:
(Current/Filed)
6,000ft
Speed:
(Current/Filed)
165kts
Departed: 22-Feb-21 07:35 PM
Arrived: 22-Feb-21 08:40 PM
Distance/Time
Traveled:
112nm/1:05
Distance/Time
To Go:
Arrived

Flight Plot

Page will automatically refresh every two minutes.

Flight plan parsing failed; only flown route is shown


Map Options




Map Legend


Flown Route
Filed Route
Departure Airport
Arrival Airport
Navaid (VOR, NDB)
Fix

Horizontal Profiles

Position Reports

Time Latitude Longitude Heading Altitude Ground
Speed
22-Feb-21 19:27 32.827722 -116.965444 117 391ft 0kts
22-Feb-21 19:28 32.827721 -116.965443 117 391ft 0kts
22-Feb-21 19:30 32.827721 -116.965443 117 391ft 0kts
22-Feb-21 19:31 32.827673 -116.965339 120 391ft 6kts
22-Feb-21 19:31 32.826936 -116.964865 179 391ft 0kts
22-Feb-21 19:32 32.826936 -116.964865 179 391ft 0kts
22-Feb-21 19:33 32.826935 -116.964865 179 391ft 0kts
22-Feb-21 19:34 32.828028 -116.974208 275 641ft 76kts
22-Feb-21 19:35 32.829583 -117.010598 303 1443ft 140kts
22-Feb-21 19:36 32.866364 -117.025222 350 2171ft 149kts
22-Feb-21 19:37 32.906009 -117.035952 348 2651ft 141kts
22-Feb-21 19:38 32.945130 -117.046850 347 3158ft 145kts
22-Feb-21 19:39 32.984021 -117.058009 346 3752ft 139kts
22-Feb-21 19:40 33.010766 -117.087548 307 4449ft 132kts
22-Feb-21 19:41 33.033685 -117.121454 307 5137ft 131kts
22-Feb-21 19:42 33.057026 -117.154822 306 5826ft 130kts
22-Feb-21 19:43 33.082401 -117.191090 307 6018ft 157kts
22-Feb-21 19:44 33.111541 -117.232650 307 6000ft 165kts
22-Feb-21 19:45 33.140973 -117.274762 307 6000ft 165kts
22-Feb-21 19:46 33.170275 -117.316758 307 6000ft 164kts
22-Feb-21 19:47 33.199640 -117.358894 307 6001ft 164kts
22-Feb-21 19:48 33.228862 -117.400889 307 6000ft 165kts
22-Feb-21 19:49 33.260504 -117.440836 312 6000ft 166kts
22-Feb-21 19:50 33.293572 -117.479423 312 6000ft 166kts
22-Feb-21 19:51 33.326724 -117.518086 313 5999ft 166kts
22-Feb-21 19:52 33.359715 -117.556590 313 5999ft 166kts
22-Feb-21 19:53 33.392772 -117.595214 313 6000ft 166kts
22-Feb-21 19:54 33.425777 -117.633821 312 5999ft 166kts
22-Feb-21 19:55 33.458973 -117.672261 312 6000ft 166kts
22-Feb-21 19:56 33.492077 -117.711389 312 6000ft 167kts
22-Feb-21 19:57 33.525148 -117.750317 312 5999ft 166kts
22-Feb-21 19:58 33.557753 -117.788617 312 6069ft 164kts
22-Feb-21 19:59 33.590976 -117.827730 312 5999ft 167kts
22-Feb-21 20:00 33.624084 -117.866709 312 5999ft 167kts
22-Feb-21 20:01 33.657296 -117.905870 312 6000ft 167kts
22-Feb-21 20:02 33.690421 -117.944970 312 5999ft 167kts
22-Feb-21 20:03 33.723476 -117.984033 312 5999ft 167kts
22-Feb-21 20:04 33.756661 -118.023296 313 5999ft 167kts
22-Feb-21 20:05 33.786207 -118.065542 288 6006ft 164kts
22-Feb-21 20:06 33.799411 -118.117078 284 6000ft 165kts
22-Feb-21 20:07 33.812673 -118.170141 285 5990ft 166kts
22-Feb-21 20:08 33.826206 -118.223466 285 5990ft 166kts
22-Feb-21 20:09 33.839701 -118.276713 285 5991ft 165kts
22-Feb-21 20:10 33.870940 -118.316905 318 5990ft 167kts
22-Feb-21 20:11 33.906873 -118.352795 318 5990ft 168kts
22-Feb-21 20:12 33.942964 -118.389062 318 5992ft 170kts
22-Feb-21 20:13 33.979490 -118.425804 318 5991ft 171kts
22-Feb-21 20:14 34.017028 -118.461102 329 5992ft 172kts
22-Feb-21 20:15 34.059259 -118.488279 330 5990ft 171kts
22-Feb-21 20:16 34.101320 -118.515359 330 5990ft 171kts
22-Feb-21 20:17 34.143462 -118.542537 330 5992ft 172kts
22-Feb-21 20:18 34.185601 -118.569734 330 5992ft 171kts
22-Feb-21 20:19 34.222284 -118.603792 285 5992ft 167kts
22-Feb-21 20:20 34.223079 -118.660666 259 5750ft 175kts
22-Feb-21 20:21 34.189526 -118.657993 97 5253ft 183kts
22-Feb-21 20:22 34.220118 -118.609959 66 4779ft 184kts
22-Feb-21 20:23 34.198528 -118.575491 205 4295ft 170kts
22-Feb-21 20:24 34.188643 -118.630146 266 3827ft 178kts
22-Feb-21 20:25 34.209228 -118.672184 12 3698ft 164kts
22-Feb-21 20:26 34.223439 -118.627338 91 3699ft 159kts
22-Feb-21 20:27 34.215046 -118.577376 149 3690ft 159kts
22-Feb-21 20:28 34.191414 -118.611258 268 3702ft 173kts
22-Feb-21 20:29 34.200909 -118.664698 336 3694ft 170kts
22-Feb-21 20:30 34.223481 -118.630997 91 3702ft 160kts
22-Feb-21 20:31 34.217368 -118.579252 140 3689ft 159kts
22-Feb-21 20:32 34.191454 -118.607493 267 3705ft 172kts
22-Feb-21 20:33 34.198493 -118.663508 325 3502ft 180kts
22-Feb-21 20:34 34.223751 -118.634972 91 3407ft 160kts
22-Feb-21 20:35 34.222969 -118.580890 89 3364ft 161kts
22-Feb-21 20:36 34.223479 -118.525513 90 2581ft 164kts
22-Feb-21 20:37 34.195033 -118.494938 171 2104ft 112kts
22-Feb-21 20:38 34.196702 -118.489221 358 851ft 88kts
22-Feb-21 20:39 34.203423 -118.490398 218 806ft 0kts

Navigation Log

Ident Type
Flight plan parsing failed, navigation log unavailable